createdAt,value
2022-09-28T00:01:09.531Z,98415.41
2022-09-28T00:03:37.421Z,98416.09
2022-09-28T00:06:05.561Z,98419.44
2022-09-28T00:08:35.028Z,98410.50
2022-09-28T00:11:02.887Z,98351.47
2022-09-28T00:13:31.717Z,98406.16
2022-09-28T00:16:03.512Z,98403.50
2022-09-28T00:18:31.276Z,98406.03
2022-09-28T00:21:03.530Z,98393.59
2022-09-28T00:23:31.225Z,98396.50
2022-09-28T00:26:04.110Z,98392.88
2022-09-28T00:28:32.124Z,98385.88
2022-09-28T00:31:00.374Z,98384.50
2022-09-28T00:33:28.075Z,98145.44
2022-09-28T00:35:57.140Z,98377.22
2022-09-28T00:38:28.074Z,98376.38
2022-09-28T00:40:56.651Z,98367.13
2022-09-28T00:43:26.399Z,98340.84
2022-09-28T00:45:57.743Z,98372.16
2022-09-28T00:48:25.725Z,98373.03
2022-09-28T00:50:53.440Z,98361.81
2022-09-28T00:53:22.391Z,98361.16
2022-09-28T00:55:51.459Z,98316.53
2022-09-28T00:58:19.972Z,98351.19
2022-09-28T01:00:49.248Z,98353.03
2022-09-28T01:03:17.152Z,98350.53
2022-09-28T01:05:44.922Z,98283.13
2022-09-28T01:08:13.372Z,98348.81
2022-09-28T01:10:41.017Z,98338.34
2022-09-28T01:13:08.692Z,98328.84
2022-09-28T01:15:38.061Z,98339.47
2022-09-28T01:18:11.120Z,98281.88
2022-09-28T01:20:52.744Z,98318.50
2022-09-28T01:23:49.745Z,98327.31
2022-09-28T01:26:52.408Z,98318.50
2022-09-28T01:29:33.477Z,98315.84
2022-09-28T01:32:04.146Z,98250.00
2022-09-28T01:34:32.719Z,98308.84
2022-09-28T01:37:00.395Z,98308.72
2022-09-28T01:39:30.484Z,98289.28
2022-09-28T01:41:58.450Z,98301.16
2022-09-28T01:44:26.158Z,98234.06
2022-09-28T01:46:55.194Z,98289.69
2022-09-28T01:49:24.109Z,98241.19
2022-09-28T01:51:53.440Z,98282.16
2022-09-28T01:54:24.699Z,98276.69
2022-09-28T01:56:53.264Z,98281.31
2022-09-28T01:59:23.149Z,98276.84
2022-09-28T02:01:53.268Z,98279.34
2022-09-28T02:04:22.842Z,98270.69
2022-09-28T02:06:52.208Z,98260.19
2022-09-28T02:09:21.759Z,98211.47
2022-09-28T02:11:51.619Z,98251.69
2022-09-28T02:14:19.726Z,98220.66
2022-09-28T02:16:48.335Z,98249.56
2022-09-28T02:19:17.321Z,98246.91
2022-09-28T02:21:48.711Z,98242.59
2022-09-28T02:24:21.421Z,98201.81
2022-09-28T02:26:49.419Z,98241.47
2022-09-28T02:29:17.265Z,98230.44
2022-09-28T02:31:45.200Z,98234.06
2022-09-28T02:34:12.941Z,98238.41
2022-09-28T02:36:40.619Z,98233.91
2022-09-28T02:39:15.132Z,98237.28
2022-09-28T02:41:49.665Z,98227.50
2022-09-28T02:44:27.891Z,98224.72
2022-09-28T02:46:58.666Z,98227.66
2022-09-28T02:49:29.227Z,98200.56
2022-09-28T02:52:10.310Z,98186.16
2022-09-28T02:55:02.755Z,98224.16
2022-09-28T02:57:35.192Z,98161.03
2022-09-28T03:00:08.383Z,98217.31
2022-09-28T03:02:37.876Z,98222.63
2022-09-28T03:05:12.918Z,98207.81
2022-09-28T03:07:41.987Z,98218.28
2022-09-28T03:10:14.365Z,98222.63
2022-09-28T03:12:42.069Z,98218.41
2022-09-28T03:15:11.285Z,98210.06
2022-09-28T03:17:39.350Z,98215.22
2022-09-28T03:20:08.118Z,98212.44
2022-09-28T03:22:35.823Z,98214.38
2022-09-28T03:25:03.487Z,98216.88
2022-09-28T03:27:32.514Z,98215.22
2022-09-28T03:30:00.341Z,98134.78
2022-09-28T03:32:28.037Z,98218.84
2022-09-28T03:34:55.888Z,98212.56
2022-09-28T03:37:23.613Z,98205.69
2022-09-28T03:39:51.250Z,98210.59
2022-09-28T03:42:18.934Z,98191.59
2022-09-28T03:44:48.002Z,98175.25
2022-09-28T03:47:17.953Z,98203.31
2022-09-28T03:49:45.665Z,98203.91
2022-09-28T03:52:13.518Z,98203.03
2022-09-28T03:54:43.720Z,98211.00
2022-09-28T03:57:13.458Z,98206.69
2022-09-28T03:59:41.103Z,98208.22
2022-09-28T04:02:10.350Z,98209.22
2022-09-28T04:04:38.106Z,98203.91
2022-09-28T04:07:05.822Z,98201.25
2022-09-28T04:09:33.507Z,98208.63
2022-09-28T04:12:04.296Z,98204.75
2022-09-28T04:14:32.331Z,98203.03
2022-09-28T04:17:00.031Z,98200.25
2022-09-28T04:19:29.075Z,98200.25
2022-09-28T04:21:56.779Z,98203.63
2022-09-28T04:24:24.498Z,98200.69
2022-09-28T04:26:52.173Z,98202.38
2022-09-28T04:29:19.415Z,98210.19
2022-09-28T04:31:48.181Z,98196.63
2022-09-28T04:34:17.401Z,98214.66
2022-09-28T04:36:46.490Z,98215.78
2022-09-28T04:39:14.437Z,98199.16
2022-09-28T04:41:42.275Z,98152.09
2022-09-28T04:44:10.204Z,98203.91
2022-09-28T04:46:37.900Z,98211.44
2022-09-28T04:49:05.581Z,98215.78
2022-09-28T04:51:33.380Z,98213.41
2022-09-28T04:54:02.471Z,98222.91
2022-09-28T04:56:30.140Z,98221.09
2022-09-28T04:58:57.991Z,98219.00
2022-09-28T05:01:25.946Z,98231.56
2022-09-28T05:03:54.138Z,98234.22
2022-09-28T05:06:22.690Z,98232.41
2022-09-28T05:08:50.409Z,98228.19
2022-09-28T05:11:21.349Z,98234.06
2022-09-28T05:13:50.410Z,98234.34
2022-09-28T05:16:18.183Z,98237.16
2022-09-28T05:18:45.931Z,98237.56
2022-09-28T05:21:13.777Z,98233.38
2022-09-28T05:23:41.497Z,98238.81
2022-09-28T05:26:09.188Z,98227.25
2022-09-28T05:28:38.216Z,98238.25
2022-09-28T05:31:06.139Z,98147.31
2022-09-28T05:33:33.863Z,98136.56
2022-09-28T05:36:05.847Z,98230.59
2022-09-28T05:38:33.583Z,98227.78
2022-09-28T05:41:06.284Z,98233.94
2022-09-28T05:43:34.354Z,98238.84
2022-09-28T05:46:03.389Z,98230.88
2022-09-28T05:48:31.165Z,98180.84
2022-09-28T05:50:59.735Z,98231.03
2022-09-28T05:53:27.573Z,98201.13
2022-09-28T05:55:58.706Z,98233.94
2022-09-28T05:58:26.437Z,98208.25
2022-09-28T06:00:55.327Z,98234.06
2022-09-28T06:07:12.367Z,98247.06
2022-09-28T06:09:39.713Z,98244.13
2022-09-28T06:12:07.223Z,98247.50
2022-09-28T06:14:34.824Z,98253.22
2022-09-28T06:17:02.181Z,98251.41
2022-09-28T06:19:29.583Z,98253.91
2022-09-28T06:21:59.282Z,98240.91
2022-09-28T06:24:28.224Z,98251.13
2022-09-28T06:26:55.580Z,98252.69
2022-09-28T06:29:22.936Z,98259.78
2022-09-28T06:31:51.281Z,98214.81
2022-09-28T06:34:18.931Z,98249.59
2022-09-28T06:36:46.753Z,98262.31
2022-09-28T06:39:14.112Z,98266.78
2022-09-28T06:41:42.769Z,98255.91
2022-09-28T06:44:10.251Z,98270.97
2022-09-28T06:46:39.109Z,98274.31
2022-09-28T06:49:09.124Z,98280.47
2022-09-28T06:51:37.594Z,98213.56
2022-09-28T06:54:04.946Z,98279.34
2022-09-28T06:56:33.178Z,98283.56
2022-09-28T06:59:02.231Z,98280.06
2022-09-28T07:01:29.683Z,98286.91
2022-09-28T07:03:57.750Z,98282.44
2022-09-28T07:06:26.615Z,98279.63
2022-09-28T07:09:00.307Z,98294.31
2022-09-28T07:11:40.336Z,98253.53
2022-09-28T07:14:12.699Z,98290.69
2022-09-28T07:17:09.744Z,98295.28
2022-09-28T07:19:30.527Z,98296.28
2022-09-28T07:22:04.809Z,98298.66
2022-09-28T07:24:33.173Z,98301.31
2022-09-28T07:27:01.809Z,98302.97
2022-09-28T07:29:30.481Z,98309.00
2022-09-28T07:31:57.836Z,98309.84
2022-09-28T07:34:25.183Z,98333.59
2022-09-28T07:36:58.743Z,98301.72
2022-09-28T07:39:26.149Z,98305.06
2022-09-28T07:41:54.406Z,98303.25
2022-09-28T07:44:25.012Z,98307.59
2022-09-28T07:46:54.230Z,98309.13
2022-09-28T07:49:22.875Z,98312.47
2022-09-28T07:51:50.222Z,98301.44
2022-09-28T07:54:17.956Z,98315.84
2022-09-28T07:56:45.282Z,98318.34
2022-09-28T07:59:13.687Z,98318.50
2022-09-28T08:01:41.090Z,98329.13
2022-09-28T08:04:09.836Z,98320.31
2022-09-28T08:06:37.167Z,98324.66
2022-09-28T08:09:04.644Z,98328.13
2022-09-28T08:11:31.985Z,98331.78
2022-09-28T08:14:00.282Z,98336.94
2022-09-28T08:16:28.333Z,98340.44
2022-09-28T08:18:55.792Z,98307.03
2022-09-28T08:21:41.938Z,98348.16
2022-09-28T08:24:09.291Z,98347.28
2022-09-28T08:26:36.650Z,98348.97
2022-09-28T08:29:04.081Z,98348.00
2022-09-28T08:31:31.928Z,98352.47
2022-09-28T08:33:59.296Z,98362.09
2022-09-28T08:36:28.248Z,98356.78
2022-09-28T08:38:55.852Z,98348.00
2022-09-28T08:41:28.365Z,98354.56
2022-09-28T08:44:01.243Z,98353.47
2022-09-28T08:49:20.595Z,98333.47
2022-09-28T08:51:46.073Z,98361.25
2022-09-28T08:54:19.467Z,98367.44
2022-09-28T08:56:49.308Z,98371.75
2022-09-28T08:59:18.054Z,98327.44
2022-09-28T09:01:47.383Z,98373.59
2022-09-28T09:04:14.803Z,98377.06
2022-09-28T09:07:15.568Z,98379.59
2022-09-28T09:09:48.889Z,98377.22
2022-09-28T09:12:20.231Z,98299.06
2022-09-28T09:15:07.287Z,98385.75
2022-09-28T09:17:40.441Z,98382.25
2022-09-28T09:20:16.124Z,98335.53
2022-09-28T09:22:50.901Z,98393.59
2022-09-28T09:25:20.208Z,98399.75
2022-09-28T09:27:59.079Z,98392.59
2022-09-28T09:30:30.489Z,98403.78
2022-09-28T09:33:08.206Z,98381.56
2022-09-28T09:35:49.820Z,98358.63
2022-09-28T09:38:33.165Z,98402.72
2022-09-28T09:41:09.933Z,98403.66
2022-09-28T09:43:59.826Z,98408.00
2022-09-28T09:46:33.171Z,98390.53
2022-09-28T09:49:01.845Z,98411.06
2022-09-28T09:51:33.986Z,98415.25
2022-09-28T09:54:03.328Z,98412.19
2022-09-28T09:56:34.499Z,98424.47
2022-09-28T09:59:04.469Z,98420.88
2022-09-28T10:01:34.006Z,98426.59
2022-09-28T10:04:01.689Z,98424.22
2022-09-28T10:06:31.153Z,98424.66
2022-09-28T10:09:02.907Z,98429.56
2022-09-28T10:11:33.967Z,98400.19
2022-09-28T10:14:01.912Z,98446.06
2022-09-28T10:16:29.285Z,98439.06
2022-09-28T10:18:56.669Z,98441.59
2022-09-28T10:21:24.007Z,98438.94
2022-09-28T10:23:55.369Z,98373.16
2022-09-28T10:26:25.514Z,98400.31
2022-09-28T10:28:55.218Z,98440.22
2022-09-28T10:31:40.036Z,98393.84
2022-09-28T10:34:07.972Z,98448.56
2022-09-28T10:36:45.307Z,98456.97
2022-09-28T10:39:26.971Z,98459.38
2022-09-28T10:41:54.301Z,98452.22
2022-09-28T10:44:22.958Z,98462.72
2022-09-28T10:46:56.421Z,98451.38
2022-09-28T10:49:23.790Z,98457.13
2022-09-28T10:51:53.253Z,98461.47
2022-09-28T10:54:21.704Z,98467.50
2022-09-28T10:56:49.322Z,98461.19
2022-09-28T10:59:25.846Z,98463.41
2022-09-28T11:01:54.673Z,98454.34
2022-09-28T11:04:23.306Z,98448.88
2022-09-28T11:06:51.241Z,98462.84
2022-09-28T11:09:29.698Z,98465.50
2022-09-28T11:11:58.392Z,98475.84
2022-09-28T11:14:29.234Z,98464.25
2022-09-28T11:17:15.375Z,98464.13
2022-09-28T11:19:43.083Z,98468.44
2022-09-28T11:22:21.780Z,98469.28
2022-09-28T11:24:49.169Z,98468.31
2022-09-28T11:27:23.288Z,98473.06
2022-09-28T11:29:56.492Z,98435.03
2022-09-28T11:32:24.287Z,98481.31
2022-09-28T11:34:59.722Z,98366.31
2022-09-28T11:37:38.326Z,98482.31
2022-09-28T11:40:14.220Z,98473.94
2022-09-28T11:42:45.397Z,98476.13
2022-09-28T11:45:26.603Z,98481.19
2022-09-28T11:47:55.332Z,98387.16
2022-09-28T11:50:27.275Z,98488.31
2022-09-28T11:53:01.355Z,98486.38
2022-09-28T11:55:32.291Z,98480.91
2022-09-28T11:58:02.945Z,98422.00
2022-09-28T12:00:31.837Z,98491.81
2022-09-28T12:03:01.155Z,98394.16
2022-09-28T12:05:29.255Z,98486.38
2022-09-28T12:07:57.429Z,98504.13
2022-09-28T12:10:31.505Z,98487.47
2022-09-28T12:13:00.933Z,98502.75
2022-09-28T12:15:47.149Z,98501.63
2022-09-28T12:18:22.991Z,98459.50
2022-09-28T12:20:52.660Z,98480.78
2022-09-28T12:23:22.000Z,98444.53
2022-09-28T12:25:52.581Z,98491.84
2022-09-28T12:28:23.156Z,98500.66
2022-09-28T12:30:51.854Z,98496.03
2022-09-28T12:33:19.296Z,98485.13
2022-09-28T12:35:56.292Z,98494.75
2022-09-28T12:38:31.501Z,98484.69
2022-09-28T12:41:02.481Z,98435.16
2022-09-28T12:43:46.416Z,98439.09
2022-09-28T12:46:25.339Z,98487.47
2022-09-28T12:50:20.063Z,98419.34
2022-09-28T12:52:21.912Z,98500.47
2022-09-28T12:54:58.098Z,98502.47
2022-09-28T12:57:38.168Z,98453.19
2022-09-28T13:00:06.680Z,98507.09
2022-09-28T13:02:59.831Z,98464.97
2022-09-28T13:06:01.141Z,98505.41
2022-09-28T13:08:31.634Z,98510.44
2022-09-28T13:11:07.827Z,98506.94
2022-09-28T13:13:39.864Z,98513.25
2022-09-28T13:16:09.199Z,98512.38
2022-09-28T13:18:39.733Z,98370.78
2022-09-28T13:21:11.736Z,98489.31
2022-09-28T13:23:40.995Z,98509.88
2022-09-28T13:26:14.395Z,98459.78
2022-09-28T13:28:42.131Z,98454.34
2022-09-28T13:31:09.649Z,98456.00
2022-09-28T13:33:39.464Z,98513.50
2022-09-28T13:36:38.742Z,98506.22
2022-09-28T13:39:35.431Z,98513.66
2022-09-28T13:42:02.776Z,98511.28
2022-09-28T13:44:49.412Z,98513.94
2022-09-28T13:47:26.304Z,98441.88
2022-09-28T13:50:03.548Z,98523.59
2022-09-28T13:52:36.795Z,98517.28
2022-09-28T13:55:26.632Z,98469.28
2022-09-28T13:57:56.748Z,98520.53
2022-09-28T14:00:26.158Z,98519.25
2022-09-28T14:02:54.523Z,98463.53
2022-09-28T14:05:47.036Z,98511.28
2022-09-28T14:08:29.268Z,98529.19
2022-09-28T14:10:56.951Z,98538.56
2022-09-28T14:14:01.146Z,98519.78
2022-09-28T14:16:30.975Z,98525.25
2022-09-28T14:19:00.101Z,98528.47
2022-09-28T14:21:54.144Z,98533.50
2022-09-28T14:24:39.054Z,98495.44
2022-09-28T14:27:24.975Z,98519.06
2022-09-28T14:29:55.408Z,98537.31
2022-09-28T14:32:26.182Z,98538.97
2022-09-28T14:34:57.417Z,98500.19
2022-09-28T14:37:46.860Z,98528.91
2022-09-28T14:40:36.154Z,98544.28
2022-09-28T14:43:23.908Z,98546.38
2022-09-28T14:45:51.573Z,98550.16
2022-09-28T14:48:22.841Z,98542.31
2022-09-28T14:50:50.225Z,98545.50
2022-09-28T14:53:23.037Z,98548.38
2022-09-28T14:55:52.306Z,98502.19
2022-09-28T14:58:22.437Z,98499.66
2022-09-28T15:00:50.773Z,98549.63
2022-09-28T15:03:18.137Z,98552.41
2022-09-28T15:05:47.393Z,98496.75
2022-09-28T15:08:14.812Z,98554.47
2022-09-28T15:10:46.930Z,98556.69
2022-09-28T15:13:31.985Z,98549.91
2022-09-28T15:16:01.251Z,98556.91
2022-09-28T15:18:53.932Z,98560.72
2022-09-28T15:21:21.455Z,98562.41
2022-09-28T15:23:49.659Z,98556.25
2022-09-28T15:26:27.308Z,98554.69
2022-09-28T15:28:54.987Z,98556.69
2022-09-28T15:31:23.784Z,98517.13
2022-09-28T15:34:23.320Z,98557.59
2022-09-28T15:36:50.665Z,98552.41
2022-09-28T15:39:19.709Z,98557.03
2022-09-28T15:41:49.079Z,98561.94
2022-09-28T15:44:30.068Z,98496.94
2022-09-28T15:47:11.636Z,98476.84
2022-09-28T15:49:42.049Z,98520.78
2022-09-28T15:52:22.904Z,98568.66
2022-09-28T15:54:50.253Z,98581.69
2022-09-28T15:57:37.113Z,98587.69
2022-09-28T16:00:17.323Z,98540.69
2022-09-28T16:03:00.168Z,98580.56
2022-09-28T16:05:35.611Z,98547.72
2022-09-28T16:08:03.401Z,98592.66
2022-09-28T16:10:33.578Z,98602.47
2022-09-28T16:13:09.423Z,98603.91
2022-09-28T16:15:37.124Z,98560.25
2022-09-28T16:18:06.723Z,98548.09
2022-09-28T16:20:36.250Z,98600.00
2022-09-28T16:23:10.272Z,98529.16
2022-09-28T16:25:39.328Z,98602.25
2022-09-28T16:28:06.797Z,98584.06
2022-09-28T16:30:35.471Z,98533.09
2022-09-28T16:33:03.481Z,98600.56
2022-09-28T16:35:31.521Z,98605.22
2022-09-28T16:38:10.135Z,98607.19
2022-09-28T16:40:40.111Z,98565.59
2022-09-28T16:43:07.881Z,98577.06
2022-09-28T16:45:36.745Z,98619.13
2022-09-28T16:48:04.734Z,98617.56
2022-09-28T16:50:32.089Z,98616.88
2022-09-28T16:53:18.928Z,98625.28
2022-09-28T16:55:47.256Z,98632.72
2022-09-28T16:58:14.597Z,98626.41
2022-09-28T17:00:45.577Z,98631.84
2022-09-28T17:03:17.528Z,98626.28
2022-09-28T17:05:44.992Z,98634.13
2022-09-28T17:08:14.586Z,98641.41
2022-09-28T17:11:02.543Z,98640.69
2022-09-28T17:13:33.185Z,98588.00
2022-09-28T17:16:03.027Z,98584.34
2022-09-28T17:18:31.754Z,98618.25
2022-09-28T17:21:00.608Z,98593.06
2022-09-28T17:23:28.023Z,98653.00
2022-09-28T17:25:55.534Z,98656.66
2022-09-28T17:28:23.480Z,98661.25
2022-09-28T17:30:50.921Z,98663.34
2022-09-28T17:33:19.670Z,98665.06
2022-09-28T17:35:47.112Z,98606.47
2022-09-28T17:38:15.009Z,98621.31
2022-09-28T17:40:42.616Z,98671.47
2022-09-28T17:43:10.159Z,98639.81
2022-09-28T17:45:39.404Z,98626.63
2022-09-28T17:48:08.913Z,98674.53
2022-09-28T17:50:37.741Z,98685.31
2022-09-28T17:53:06.356Z,98686.19
2022-09-28T17:55:35.920Z,98687.31
2022-09-28T17:58:11.934Z,98686.59
2022-09-28T18:00:40.146Z,98688.41
2022-09-28T18:03:11.547Z,98684.94
2022-09-28T18:05:40.258Z,98688.94
2022-09-28T18:08:07.707Z,98688.00
2022-09-28T18:10:35.262Z,98689.66
2022-09-28T18:13:02.768Z,98684.50
2022-09-28T18:15:30.315Z,98684.63
2022-09-28T18:17:58.250Z,98688.13
2022-09-28T18:20:26.459Z,98694.41
2022-09-28T18:22:55.247Z,98688.28
2022-09-28T18:25:22.773Z,98692.75
2022-09-28T18:27:50.252Z,98691.22
2022-09-28T18:30:17.983Z,98700.00
2022-09-28T18:32:45.391Z,98701.97
2022-09-28T18:35:12.790Z,98703.94
2022-09-28T18:37:40.690Z,98703.94
2022-09-28T18:40:10.535Z,98680.91
2022-09-28T18:42:38.049Z,98710.09
2022-09-28T18:45:06.248Z,98710.22
2022-09-28T18:47:34.765Z,98699.41
2022-09-28T18:50:02.228Z,98674.47
2022-09-28T18:52:29.625Z,98713.44
2022-09-28T18:54:57.026Z,98718.75
2022-09-28T18:57:25.990Z,98717.06
2022-09-28T18:59:53.415Z,98724.06
2022-09-28T19:02:21.045Z,98723.09
2022-09-28T19:04:48.563Z,98731.34
2022-09-28T19:07:16.777Z,98726.28
2022-09-28T19:09:44.999Z,98694.00
2022-09-28T19:12:12.576Z,98731.75
2022-09-28T19:14:41.395Z,98728.22
2022-09-28T19:17:09.976Z,98731.88
2022-09-28T19:19:37.421Z,98725.56
2022-09-28T19:22:05.154Z,98667.91
2022-09-28T19:24:32.666Z,98736.34
2022-09-28T19:27:00.091Z,98732.16
2022-09-28T19:29:27.749Z,98737.47
2022-09-28T19:31:56.925Z,98737.75
2022-09-28T19:34:26.879Z,98739.41
2022-09-28T19:36:54.506Z,98710.22
2022-09-28T19:39:21.955Z,98738.72
2022-09-28T19:41:51.119Z,98739.69
2022-09-28T19:44:24.617Z,98693.69
2022-09-28T19:46:53.424Z,98742.34
2022-09-28T19:49:22.591Z,98694.22
2022-09-28T19:54:38.016Z,98743.59
2022-09-28T19:57:07.450Z,98743.72
2022-09-28T19:59:35.522Z,98727.84
2022-09-28T20:02:03.081Z,98752.56
2022-09-28T20:04:31.969Z,98754.34
2022-09-28T20:07:00.039Z,98747.38
2022-09-28T20:09:27.457Z,98748.31
2022-09-28T20:11:54.990Z,98748.31
2022-09-28T20:14:24.599Z,98753.78
2022-09-28T20:16:55.688Z,98756.44
2022-09-28T20:19:23.220Z,98755.63
2022-09-28T20:21:52.174Z,98759.22
2022-09-28T20:24:19.592Z,98770.59
2022-09-28T20:26:48.172Z,98763.59
2022-09-28T20:29:15.615Z,98767.34
2022-09-28T20:31:43.071Z,98770.97
2022-09-28T20:34:10.669Z,98772.66
2022-09-28T20:36:38.121Z,98773.63
2022-09-28T20:39:06.877Z,98769.16
2022-09-28T20:41:35.410Z,98770.97
2022-09-28T20:44:05.646Z,98713.69
2022-09-28T20:46:33.949Z,98764.94
2022-09-28T20:49:01.511Z,98766.91
2022-09-28T20:51:28.972Z,98767.03
2022-09-28T20:53:57.697Z,98764.66
2022-09-28T20:56:27.625Z,98706.91
2022-09-28T20:58:55.239Z,98767.19
2022-09-28T21:01:23.620Z,98726.28
2022-09-28T21:03:51.907Z,98725.28
2022-09-28T21:06:20.062Z,98774.31
2022-09-28T21:08:47.573Z,98770.91
2022-09-28T21:11:15.079Z,98713.75
2022-09-28T21:13:44.176Z,98769.13
2022-09-28T21:16:12.076Z,98776.38
2022-09-28T21:18:39.522Z,98774.69
2022-09-28T21:21:07.364Z,98773.72
2022-09-28T21:23:35.047Z,98761.44
2022-09-28T21:26:04.096Z,98785.19
2022-09-28T21:28:31.504Z,98786.31
2022-09-28T21:31:00.310Z,98786.56
2022-09-28T21:33:27.875Z,98781.38
2022-09-28T21:35:55.388Z,98785.72
2022-09-28T21:38:22.839Z,98778.84
2022-09-28T21:40:55.446Z,98795.63
2022-09-28T21:43:22.953Z,98790.44
2022-09-28T21:45:51.872Z,98786.13
2022-09-28T21:48:20.651Z,98792.41
2022-09-28T21:50:55.613Z,98787.09
2022-09-28T21:53:23.220Z,98789.97
2022-09-28T21:55:52.343Z,98791.78
2022-09-28T21:58:23.012Z,98796.25
2022-09-28T22:00:55.696Z,98768.03
2022-09-28T22:03:27.037Z,98805.34
2022-09-28T22:05:54.460Z,98805.47
2022-09-28T22:08:22.025Z,98724.59
2022-09-28T22:11:00.752Z,98801.00
2022-09-28T22:13:28.620Z,98812.59
2022-09-28T22:15:57.024Z,98804.63
2022-09-28T22:18:24.607Z,98807.41
2022-09-28T22:21:00.258Z,98809.22
2022-09-28T22:23:27.734Z,98812.03
2022-09-28T22:25:59.320Z,98808.50
2022-09-28T22:28:26.772Z,98807.66
2022-09-28T22:30:54.250Z,98809.50
2022-09-28T22:33:21.709Z,98816.59
2022-09-28T22:35:51.184Z,98809.75
2022-09-28T22:38:20.052Z,98817.72
2022-09-28T22:40:50.687Z,98822.19
2022-09-28T22:43:18.633Z,98817.84
2022-09-28T22:45:46.111Z,98813.50
2022-09-28T22:48:13.706Z,98819.78
2022-09-28T22:50:48.831Z,98775.50
2022-09-28T22:53:16.280Z,98818.25
2022-09-28T22:55:45.012Z,98820.63
2022-09-28T22:58:13.393Z,98819.91
2022-09-28T23:00:40.834Z,98823.81
2022-09-28T23:03:08.342Z,98818.88
2022-09-28T23:05:35.835Z,98817.78
2022-09-28T23:08:03.264Z,98828.53
2022-09-28T23:10:30.760Z,98825.00
2022-09-28T23:12:59.567Z,98821.78
2022-09-28T23:15:28.360Z,98823.59
2022-09-28T23:17:55.868Z,98798.94
2022-09-28T23:20:23.567Z,98820.22
2022-09-28T23:22:51.169Z,98819.50
2022-09-28T23:25:19.121Z,98825.66
2022-09-28T23:27:47.259Z,98821.31
2022-09-28T23:30:16.775Z,98815.53
2022-09-28T23:32:44.269Z,98818.06
2022-09-28T23:35:12.775Z,98822.44
2022-09-28T23:37:40.233Z,98821.69
2022-09-28T23:40:08.232Z,98818.19
2022-09-28T23:42:35.727Z,98821.81
2022-09-28T23:45:03.173Z,98823.50
2022-09-28T23:47:31.936Z,98826.16
2022-09-28T23:49:59.568Z,98825.22
2022-09-28T23:52:27.024Z,98833.44
2022-09-28T23:54:54.431Z,98832.56
2022-09-28T23:57:22.020Z,98828.25
2022-09-28T23:59:49.421Z,98831.72
